Time;durP1;ratioP1;P1;durP2;ratioP2;P2;SDS_P1;SDS_P2;PMS_P1;PMS_P2;Temp;Humidity;BMP_temperature;BMP_pressure;BME280_temperature;BME280_humidity;BME280_pressure;Samples;Min_cycle;Max_cycle;Signal;HPM_P1;HPM_P2
2021/03/20 11:51:56;;;;;;;20.23;19.73;;;;;;;;;;5090913;28;20540;-72
2021/03/20 11:54:27;;;;;;;20.73;20.13;;;;;;;;;;5090933;28;20168;-72
2021/03/20 11:57:05;;;;;;;21.00;20.42;;;;;;;;;;5089556;28;20175;-72
2021/03/20 11:59:44;;;;;;;21.80;21.13;;;;;;;;;;5090753;28;20250;-72
2021/03/20 12:02:33;;;;;;;21.10;20.50;;;;;;;;;;5090743;28;20176;-72
2021/03/20 12:05:11;;;;;;;21.10;20.50;;;;;;;;;;5090611;28;20242;-72
2021/03/20 12:07:37;;;;;;;20.85;20.25;;;;;;;;;;5090698;28;20175;-72
2021/03/20 12:10:32;;;;;;;22.48;21.88;;;;;;;;;;5090501;28;20183;-72
2021/03/20 12:12:58;;;;;;;22.35;21.75;;;;;;;;;;5085736;28;20186;-72
2021/03/20 12:15:26;;;;;;;22.35;21.75;;;;;;;;;;5089213;28;20178;-72
2021/03/20 12:17:53;;;;;;;22.77;22.10;;;;;;;;;;5090490;28;20171;-73
2021/03/20 12:20:23;;;;;;;23.15;22.35;;;;;;;;;;5090443;28;20737;-72
2021/03/20 12:22:49;;;;;;;24.30;23.50;;;;;;;;;;5070161;28;20183;-72
2021/03/20 12:25:22;;;;;;;22.20;21.60;;;;;;;;;;5068809;28;20204;-72
2021/03/20 12:27:48;;;;;;;23.52;22.83;;;;;;;;;;5070043;28;20173;-73
2021/03/20 12:30:14;;;;;;;24.15;23.23;;;;;;;;;;5069956;28;20189;-73
2021/03/20 12:32:42;;;;;;;24.02;23.33;;;;;;;;;;5069905;28;20180;-73
2021/03/20 12:35:17;;;;;;;22.38;21.77;;;;;;;;;;5069868;28;20214;-73
2021/03/20 12:37:44;;;;;;;23.60;22.90;;;;;;;;;;5069829;28;20247;-72
2021/03/20 12:40:11;;;;;;;22.50;21.80;;;;;;;;;;5068497;28;20267;-73
2021/03/20 12:42:37;;;;;;;22.92;22.20;;;;;;;;;;5069740;28;20657;-73
2021/03/20 12:45:04;;;;;;;21.90;21.30;;;;;;;;;;5069684;28;20165;-73
2021/03/20 12:47:31;;;;;;;21.52;20.92;;;;;;;;;;5069592;28;20172;-73
2021/03/20 12:49:57;;;;;;;22.27;21.67;;;;;;;;;;5068117;28;20577;-73
2021/03/20 12:52:24;;;;;;;22.92;22.23;;;;;;;;;;5069587;28;20568;-73
2021/03/20 12:54:51;;;;;;;21.90;21.30;;;;;;;;;;5069442;28;20630;-73
2021/03/20 12:57:18;;;;;;;22.83;21.92;;;;;;;;;;5068167;28;20259;-75
2021/03/20 12:59:45;;;;;;;22.58;21.90;;;;;;;;;;5069354;28;20173;-75
2021/03/20 13:02:12;;;;;;;21.75;21.15;;;;;;;;;;5062362;28;20193;-75
2021/03/20 13:04:38;;;;;;;20.98;20.38;;;;;;;;;;5056077;28;20162;-75
2021/03/20 13:07:04;;;;;;;21.35;20.75;;;;;;;;;;5056017;28;20199;-75
2021/03/20 13:09:30;;;;;;;22.80;22.10;;;;;;;;;;5055859;28;20632;-75
2021/03/20 13:11:56;;;;;;;21.15;20.50;;;;;;;;;;5055958;28;20173;-75
2021/03/20 13:14:22;;;;;;;21.25;20.65;;;;;;;;;;5055913;28;20165;-76
2021/03/20 13:16:48;;;;;;;22.38;21.77;;;;;;;;;;5055890;28;20169;-75
2021/03/20 13:19:14;;;;;;;22.83;22.15;;;;;;;;;;5055810;28;20173;-75
2021/03/20 13:21:40;;;;;;;22.73;22.02;;;;;;;;;;5055737;28;20203;-75
2021/03/20 13:24:06;;;;;;;21.60;21.00;;;;;;;;;;5055648;28;20173;-75
2021/03/20 13:26:32;;;;;;;23.45;22.75;;;;;;;;;;5055642;28;20698;-76
2021/03/20 13:28:59;;;;;;;24.23;23.42;;;;;;;;;;5055836;28;20184;-75
2021/03/20 13:31:25;;;;;;;23.20;22.50;;;;;;;;;;5055534;28;20199;-76
2021/03/20 13:33:51;;;;;;;22.95;22.25;;;;;;;;;;5054282;28;20330;-76
2021/03/20 13:36:17;;;;;;;24.25;23.55;;;;;;;;;;5055505;28;20201;-76
2021/03/20 13:38:43;;;;;;;25.75;24.95;;;;;;;;;;5054139;28;20184;-76
2021/03/20 13:41:10;;;;;;;27.45;26.55;;;;;;;;;;5055310;28;20224;-76
2021/03/20 13:43:36;;;;;;;27.52;26.48;;;;;;;;;;5055394;28;20165;-76
2021/03/20 13:46:02;;;;;;;27.38;26.38;;;;;;;;;;5055312;28;20165;-76
2021/03/20 13:48:28;;;;;;;24.70;23.95;;;;;;;;;;5055256;28;20172;-76
2021/03/20 13:50:55;;;;;;;26.25;25.45;;;;;;;;;;5055102;28;20217;-76
2021/03/20 13:53:23;;;;;;;26.90;25.95;;;;;;;;;;5055063;28;20176;-76
2021/03/20 13:55:54;;;;;;;26.75;25.85;;;;;;;;;;5055093;28;20169;-76
2021/03/20 13:58:20;;;;;;;28.33;27.35;;;;;;;;;;5055040;28;20642;-76
2021/03/20 14:00:46;;;;;;;25.83;25.02;;;;;;;;;;5055002;28;20760;-76
2021/03/20 14:03:12;;;;;;;27.52;26.63;;;;;;;;;;5054942;28;20528;-76
2021/03/20 14:05:38;;;;;;;26.55;25.67;;;;;;;;;;5053769;28;20169;-77
2021/03/20 14:08:05;;;;;;;26.63;25.80;;;;;;;;;;5053635;28;20173;-77
2021/03/20 14:10:32;;;;;;;25.98;25.17;;;;;;;;;;5054880;28;20673;-77
2021/03/20 14:12:58;;;;;;;28.00;27.00;;;;;;;;;;5053095;28;20704;-77
2021/03/20 14:15:25;;;;;;;27.88;26.98;;;;;;;;;;5054242;28;20219;-76
2021/03/20 14:17:51;;;;;;;27.27;26.27;;;;;;;;;;5054850;28;20180;-77
2021/03/20 14:20:25;;;;;;;25.75;24.95;;;;;;;;;;5054577;28;20200;-77
2021/03/20 14:22:51;;;;;;;26.70;25.45;;;;;;;;;;5054633;28;20174;-77
2021/03/20 14:25:17;;;;;;;25.92;25.05;;;;;;;;;;5054546;28;20550;-77
2021/03/20 14:27:43;;;;;;;26.48;25.58;;;;;;;;;;5054494;28;20165;-77
2021/03/20 14:30:09;;;;;;;26.83;25.92;;;;;;;;;;5054552;28;20543;-77
2021/03/20 14:32:35;;;;;;;26.45;25.65;;;;;;;;;;5054725;28;20579;-77
2021/03/20 14:35:01;;;;;;;28.10;27.05;;;;;;;;;;5054314;28;20177;-77
2021/03/20 14:37:27;;;;;;;25.95;25.15;;;;;;;;;;5054421;28;20256;-77
2021/03/20 14:39:53;;;;;;;27.58;26.67;;;;;;;;;;5054202;28;20556;-77
2021/03/20 14:42:20;;;;;;;26.70;25.80;;;;;;;;;;5052964;28;20574;-77
2021/03/20 14:44:46;;;;;;;26.58;25.58;;;;;;;;;;5054191;28;20180;-77
2021/03/20 14:47:12;;;;;;;25.58;24.77;;;;;;;;;;5054153;28;20169;-77
2021/03/20 14:49:38;;;;;;;26.40;25.60;;;;;;;;;;5052606;28;20188;-77
2021/03/20 14:52:04;;;;;;;26.48;25.65;;;;;;;;;;5054135;28;20357;-77
2021/03/20 14:54:30;;;;;;;25.77;24.98;;;;;;;;;;5054044;28;20177;-77
2021/03/20 14:56:56;;;;;;;25.45;24.65;;;;;;;;;;5054004;28;20161;-78
2021/03/20 14:59:22;;;;;;;25.90;25.10;;;;;;;;;;5053959;28;20610;-77
2021/03/20 15:01:48;;;;;;;25.25;24.45;;;;;;;;;;5053923;28;20192;-76
2021/03/20 15:04:14;;;;;;;28.80;27.70;;;;;;;;;;5053786;28;20169;-77
2021/03/20 15:06:40;;;;;;;26.38;25.58;;;;;;;;;;5053790;28;20176;-77
2021/03/20 15:09:06;;;;;;;26.23;25.42;;;;;;;;;;5053798;28;20173;-75
2021/03/20 15:11:32;;;;;;;28.40;27.50;;;;;;;;;;5053683;28;20173;-75
2021/03/20 15:13:58;;;;;;;25.83;25.02;;;;;;;;;;5052473;28;20184;-75
2021/03/20 15:16:24;;;;;;;26.33;25.52;;;;;;;;;;5053679;28;20244;-76
2021/03/20 15:18:50;;;;;;;27.17;26.27;;;;;;;;;;5053541;28;20303;-75
2021/03/20 15:21:17;;;;;;;26.83;26.00;;;;;;;;;;5053410;28;20205;-75
2021/03/20 15:23:44;;;;;;;26.70;25.85;;;;;;;;;;5053623;28;20188;-76
2021/03/20 15:26:12;;;;;;;28.88;27.92;;;;;;;;;;5053267;28;20168;-76
2021/03/20 15:28:39;;;;;;;28.35;27.35;;;;;;;;;;5053505;28;20173;-75
2021/03/20 15:31:05;;;;;;;28.48;27.48;;;;;;;;;;5054226;28;20173;-76
2021/03/20 15:33:31;;;;;;;28.95;28.00;;;;;;;;;;5053436;28;20207;-75
2021/03/20 15:35:57;;;;;;;28.00;27.00;;;;;;;;;;5052069;28;20177;-75
2021/03/20 15:38:24;;;;;;;28.42;27.48;;;;;;;;;;5053377;28;20172;-75
2021/03/20 15:40:51;;;;;;;28.60;27.60;;;;;;;;;;5053194;28;20651;-75
2021/03/20 15:43:19;;;;;;;28.02;27.02;;;;;;;;;;5053269;28;20169;-75
2021/03/20 15:45:45;;;;;;;28.95;27.95;;;;;;;;;;5053361;28;20162;-73
2021/03/20 15:48:11;;;;;;;26.85;26.02;;;;;;;;;;5053580;28;20160;-77
2021/03/20 15:50:58;;;;;;;27.60;26.70;;;;;;;;;;5053131;28;20212;-76
2021/03/20 15:53:24;;;;;;;27.80;26.80;;;;;;;;;;5051781;28;20173;-76
2021/03/20 15:55:52;;;;;;;27.48;26.58;;;;;;;;;;5053159;28;20533;-76
2021/03/20 15:58:19;;;;;;;26.98;26.08;;;;;;;;;;5053139;28;20200;-76
2021/03/20 16:00:46;;;;;;;26.10;25.30;;;;;;;;;;5052957;28;20200;-76
2021/03/20 16:03:12;;;;;;;28.65;27.65;;;;;;;;;;5053022;28;20180;-81
2021/03/20 16:05:38;;;;;;;26.35;25.55;;;;;;;;;;5054674;28;20307;-77
2021/03/20 16:48:10;;;;;;;23.52;22.83;;;;;;;;;;5091033;28;20545;-75
2021/03/20 16:50:36;;;;;;;25.00;24.20;;;;;;;;;;5090893;28;20171;-75
2021/03/20 16:53:02;;;;;;;26.27;25.27;;;;;;;;;;5090905;28;20682;-75
2021/03/20 16:55:28;;;;;;;26.50;25.60;;;;;;;;;;5089649;28;20176;-75
